createdAt,value
2018-09-24T00:00:47.893Z,4.37
2018-09-24T00:03:16.249Z,4.00
2018-09-24T00:05:44.517Z,3.93
2018-09-24T00:08:12.765Z,4.60
2018-09-24T00:10:41.073Z,4.10
2018-09-24T00:13:09.370Z,4.50
2018-09-24T00:15:37.702Z,4.03
2018-09-24T00:18:05.975Z,4.27
2018-09-24T00:20:34.237Z,4.50
2018-09-24T00:23:02.513Z,3.77
2018-09-24T00:25:30.867Z,3.50
2018-09-24T00:27:59.268Z,3.93
2018-09-24T00:30:27.594Z,3.50
2018-09-24T00:32:55.853Z,4.13
2018-09-24T00:35:24.104Z,3.73
2018-09-24T00:37:52.480Z,3.43
2018-09-24T00:40:20.955Z,4.03
2018-09-24T00:42:49.205Z,4.20
2018-09-24T00:45:17.501Z,3.87
2018-09-24T00:47:45.752Z,4.17
2018-09-24T00:50:14.031Z,4.37
2018-09-24T00:52:42.413Z,4.60
2018-09-24T00:55:10.711Z,4.47
2018-09-24T00:57:38.981Z,4.77
2018-09-24T01:00:07.370Z,5.00
2018-09-24T01:02:35.618Z,4.70
2018-09-24T01:05:03.953Z,5.80
2018-09-24T01:07:32.229Z,4.63
2018-09-24T01:10:00.553Z,5.93
2018-09-24T01:12:28.812Z,5.03
2018-09-24T01:14:57.157Z,5.37
2018-09-24T01:17:25.506Z,4.37
2018-09-24T01:19:53.773Z,5.60
2018-09-24T01:22:22.114Z,4.83
2018-09-24T01:24:50.362Z,5.73
2018-09-24T01:27:18.598Z,5.43
2018-09-24T01:29:46.851Z,5.53
2018-09-24T01:32:15.105Z,5.57
2018-09-24T01:34:43.382Z,4.93
2018-09-24T01:37:11.662Z,5.67
2018-09-24T01:39:39.916Z,5.90
2018-09-24T01:42:08.227Z,5.97
2018-09-24T01:44:36.511Z,5.03
2018-09-24T01:47:04.772Z,5.13
2018-09-24T01:49:33.005Z,5.83
2018-09-24T01:52:01.313Z,6.13
2018-09-24T01:54:30.475Z,5.60
2018-09-24T01:56:58.843Z,5.53
2018-09-24T01:59:27.213Z,5.70
2018-09-24T02:01:55.500Z,6.03
2018-09-24T02:04:23.781Z,5.00
2018-09-24T02:06:56.246Z,5.30
2018-09-24T02:09:24.626Z,5.50
2018-09-24T02:11:52.945Z,5.43
2018-09-24T02:14:21.193Z,5.70
2018-09-24T02:16:49.456Z,4.53
2018-09-24T02:19:17.924Z,4.70
2018-09-24T02:21:46.176Z,5.43
2018-09-24T02:24:14.442Z,4.80
2018-09-24T02:26:42.709Z,5.20
2018-09-24T02:29:11.186Z,5.03
2018-09-24T02:31:39.672Z,4.87
2018-09-24T02:34:08.783Z,4.60
2018-09-24T02:36:37.167Z,4.27
2018-09-24T02:39:07.322Z,4.70
2018-09-24T02:41:35.898Z,4.80
2018-09-24T02:44:04.308Z,5.13
2018-09-24T02:46:32.657Z,4.57
2018-09-24T02:49:02.982Z,4.17
2018-09-24T02:51:31.946Z,5.10
2018-09-24T02:54:00.213Z,4.30
2018-09-24T02:56:28.604Z,4.13
2018-09-24T02:58:56.953Z,4.67
2018-09-24T03:01:26.583Z,4.40
2018-09-24T03:03:54.813Z,4.33
2018-09-24T03:06:23.129Z,4.40
2018-09-24T03:08:51.373Z,4.57
2018-09-24T03:11:19.701Z,4.70
2018-09-24T03:13:48.173Z,4.00
2018-09-24T03:16:16.506Z,3.87
2018-09-24T03:18:47.098Z,4.10
2018-09-24T03:21:15.375Z,3.57
2018-09-24T03:23:43.693Z,4.27
2018-09-24T03:26:11.917Z,4.27
2018-09-24T03:28:40.180Z,4.10
2018-09-24T03:31:08.558Z,4.40
2018-09-24T03:33:36.934Z,4.30
2018-09-24T03:36:05.263Z,4.10
2018-09-24T03:38:33.597Z,4.40
2018-09-24T03:41:01.869Z,3.90
2018-09-24T03:43:30.145Z,4.20
2018-09-24T03:45:58.424Z,3.43
2018-09-24T03:48:26.708Z,3.97
2018-09-24T03:50:54.973Z,4.10
2018-09-24T03:53:23.251Z,4.27
2018-09-24T03:55:51.626Z,3.93
2018-09-24T03:58:20.106Z,4.30
2018-09-24T04:00:48.395Z,4.37
2018-09-24T04:03:16.710Z,3.57
2018-09-24T04:05:50.286Z,3.90
2018-09-24T04:08:23.840Z,3.87
2018-09-24T04:10:57.521Z,4.07
2018-09-24T04:13:31.153Z,4.40
2018-09-24T04:16:04.871Z,4.40
2018-09-24T04:18:38.483Z,4.97
2018-09-24T04:21:12.201Z,4.50
2018-09-24T04:23:45.893Z,4.20
2018-09-24T04:26:19.465Z,4.53
2018-09-24T04:28:53.005Z,4.53
2018-09-24T04:31:26.650Z,4.23
2018-09-24T04:34:00.168Z,3.83
2018-09-24T04:36:33.633Z,4.67
2018-09-24T04:39:07.175Z,3.97
2018-09-24T04:41:40.849Z,4.30
2018-09-24T04:44:14.507Z,4.90
2018-09-24T04:46:48.097Z,4.30
2018-09-24T04:49:21.763Z,3.83
2018-09-24T04:51:55.463Z,3.80
2018-09-24T04:54:29.152Z,4.13
2018-09-24T04:57:02.682Z,3.60
2018-09-24T04:59:36.286Z,3.90
2018-09-24T05:02:09.845Z,3.77
2018-09-24T05:04:43.476Z,4.10
2018-09-24T05:07:17.445Z,3.70
2018-09-24T05:09:51.043Z,3.47
2018-09-24T05:12:26.532Z,3.30
2018-09-24T05:15:07.338Z,4.07
2018-09-24T05:17:42.595Z,3.57
2018-09-24T05:20:16.542Z,3.70
2018-09-24T05:22:50.384Z,3.07
2018-09-24T05:25:24.050Z,3.70
2018-09-24T05:27:57.931Z,4.20
2018-09-24T05:30:31.601Z,4.10
2018-09-24T05:33:05.027Z,4.83
2018-09-24T05:35:38.580Z,3.93
2018-09-24T05:38:12.241Z,3.83
2018-09-24T05:40:45.778Z,3.60
2018-09-24T05:43:20.005Z,3.40
2018-09-24T05:45:53.381Z,3.70
2018-09-24T05:48:26.777Z,3.43
2018-09-24T05:51:00.453Z,3.13
2018-09-24T05:53:34.074Z,4.13
2018-09-24T05:56:07.652Z,3.47
2018-09-24T05:58:41.181Z,4.00
2018-09-24T06:01:14.691Z,3.37
2018-09-24T06:03:48.268Z,2.93
2018-09-24T06:06:21.885Z,3.33
2018-09-24T06:08:55.348Z,3.40
2018-09-24T06:11:29.025Z,3.07
2018-09-24T06:14:02.550Z,3.47
2018-09-24T06:16:36.157Z,2.97
2018-09-24T06:19:09.720Z,2.97
2018-09-24T06:21:43.381Z,3.00
2018-09-24T06:24:17.084Z,2.60
2018-09-24T06:26:50.758Z,2.50
2018-09-24T06:29:24.472Z,3.03
2018-09-24T06:31:58.187Z,2.90
2018-09-24T06:34:31.871Z,3.10
2018-09-24T06:37:05.465Z,3.23
2018-09-24T06:39:39.102Z,2.40
2018-09-24T06:42:12.722Z,2.70
2018-09-24T06:44:46.392Z,3.47
2018-09-24T06:47:20.156Z,2.60
2018-09-24T06:49:53.616Z,2.57
2018-09-24T07:01:05.375Z,2.53
2018-09-24T07:03:38.965Z,2.80
2018-09-24T07:06:12.621Z,2.47
2018-09-24T07:08:46.257Z,2.53
2018-09-24T07:11:20.019Z,2.73
2018-09-24T07:13:53.621Z,3.00
2018-09-24T07:16:27.329Z,2.60
2018-09-24T07:19:01.068Z,3.27
2018-09-24T07:21:34.816Z,2.57
2018-09-24T07:24:08.149Z,2.87
2018-09-24T07:26:41.803Z,2.90
2018-09-24T07:29:15.647Z,2.40
2018-09-24T07:31:49.346Z,3.03
2018-09-24T07:34:22.776Z,2.47
2018-09-24T07:36:56.462Z,2.43
2018-09-24T07:39:30.145Z,3.00
2018-09-24T07:42:03.958Z,2.47
2018-09-24T07:44:37.365Z,2.50
2018-09-24T07:47:10.866Z,2.30
2018-09-24T07:49:44.419Z,2.37
2018-09-24T07:52:17.951Z,2.33
2018-09-24T07:54:51.626Z,2.60
2018-09-24T07:57:25.256Z,2.80
2018-09-24T07:59:58.916Z,2.50
2018-09-24T08:02:32.616Z,3.10
2018-09-24T08:05:06.197Z,2.93
2018-09-24T08:07:39.742Z,2.40
2018-09-24T08:10:13.343Z,2.27
2018-09-24T08:12:46.868Z,1.90
2018-09-24T08:15:20.277Z,2.53
2018-09-24T08:17:53.664Z,2.57
2018-09-24T08:20:27.396Z,1.73
2018-09-24T08:23:00.867Z,2.00
2018-09-24T08:25:34.305Z,2.87
2018-09-24T08:28:07.964Z,2.57
2018-09-24T08:30:41.385Z,2.47
2018-09-24T08:33:14.949Z,2.53
2018-09-24T08:35:48.501Z,2.63
2018-09-24T08:38:22.024Z,2.70
2018-09-24T08:40:55.635Z,2.27
2018-09-24T08:43:29.160Z,2.80
2018-09-24T08:46:02.849Z,3.03
2018-09-24T08:48:36.409Z,2.20
2018-09-24T08:51:09.896Z,2.40
2018-09-24T08:53:43.460Z,2.23
2018-09-24T08:56:16.869Z,2.43
2018-09-24T08:58:50.473Z,2.07
2018-09-24T09:01:23.985Z,2.30
2018-09-24T09:03:57.518Z,2.70
2018-09-24T09:06:30.989Z,2.30
2018-09-24T09:09:04.563Z,2.17
2018-09-24T09:11:38.034Z,2.37
2018-09-24T09:14:11.756Z,2.37
2018-09-24T09:16:45.281Z,3.13
2018-09-24T09:19:18.790Z,3.10
2018-09-24T09:21:52.514Z,2.37
2018-09-24T09:24:25.930Z,1.80
2018-09-24T09:26:59.641Z,1.87
2018-09-24T09:29:33.443Z,1.50
2018-09-24T09:32:06.842Z,2.17
2018-09-24T09:34:40.464Z,1.60
2018-09-24T09:37:14.114Z,1.77
2018-09-24T09:39:47.850Z,2.43
2018-09-24T09:42:21.290Z,1.73
2018-09-24T09:44:54.812Z,2.03
2018-09-24T09:47:28.583Z,2.47
2018-09-24T09:50:02.198Z,1.40
2018-09-24T09:52:35.672Z,1.50
2018-09-24T09:55:09.248Z,1.93
2018-09-24T09:57:42.812Z,1.43
2018-09-24T10:00:16.398Z,1.20
2018-09-24T10:02:49.961Z,1.40
2018-09-24T10:05:23.496Z,1.63
2018-09-24T10:07:57.014Z,1.60
2018-09-24T10:10:30.629Z,1.37
2018-09-24T10:13:04.327Z,1.50
2018-09-24T10:15:38.049Z,1.70
2018-09-24T10:18:11.587Z,1.43
2018-09-24T10:20:45.090Z,1.50
2018-09-24T10:23:18.759Z,1.23
2018-09-24T10:25:52.295Z,1.33
2018-09-24T10:28:26.037Z,1.27
2018-09-24T10:30:59.597Z,1.10
2018-09-24T10:33:33.317Z,1.70
2018-09-24T10:36:10.693Z,1.93
2018-09-24T10:38:44.321Z,1.20
2018-09-24T10:41:17.873Z,1.60
2018-09-24T10:43:51.390Z,1.33
2018-09-24T10:46:24.959Z,2.03
2018-09-24T10:48:58.504Z,1.40
2018-09-24T10:51:32.235Z,1.57
2018-09-24T10:54:05.595Z,2.33
2018-09-24T10:56:39.309Z,1.60
2018-09-24T10:59:13.003Z,2.53
2018-09-24T11:01:46.658Z,2.10
2018-09-24T11:04:20.321Z,2.20
2018-09-24T11:06:53.959Z,1.77
2018-09-24T11:09:27.625Z,1.47
2018-09-24T11:12:01.322Z,1.90
2018-09-24T11:14:34.957Z,1.50
2018-09-24T11:17:08.644Z,1.40
2018-09-24T11:19:41.814Z,1.37
2018-09-24T11:22:15.372Z,1.20
2018-09-24T11:24:48.922Z,1.33
2018-09-24T11:27:22.566Z,1.20
2018-09-24T11:29:56.218Z,1.10
2018-09-24T11:32:29.824Z,1.00
2018-09-24T11:35:03.458Z,1.30
2018-09-24T11:37:37.066Z,1.30
2018-09-24T11:40:10.777Z,1.40
2018-09-24T11:42:44.589Z,1.50
2018-09-24T11:45:18.134Z,1.00
2018-09-24T11:47:51.646Z,1.30
2018-09-24T11:50:25.206Z,1.07
2018-09-24T11:52:58.873Z,1.00
2018-09-24T11:55:32.407Z,1.60
2018-09-24T11:58:06.143Z,1.43
2018-09-24T12:00:39.833Z,1.13
2018-09-24T12:03:13.533Z,1.33
2018-09-24T12:05:47.236Z,1.10
2018-09-24T12:08:20.873Z,1.20
2018-09-24T12:10:54.545Z,1.40
2018-09-24T12:13:27.955Z,1.33
2018-09-24T12:16:01.620Z,1.23
2018-09-24T12:18:35.321Z,1.53
2018-09-24T12:21:09.045Z,1.10
2018-09-24T12:23:42.499Z,0.83
2018-09-24T12:26:16.134Z,1.10
2018-09-24T12:28:49.808Z,0.97
2018-09-24T12:31:23.202Z,1.20
2018-09-24T12:33:56.837Z,0.90
2018-09-24T12:36:30.441Z,1.20
2018-09-24T12:39:04.082Z,1.50
2018-09-24T12:41:37.853Z,1.00
2018-09-24T12:44:11.472Z,1.20
2018-09-24T12:46:45.055Z,1.10
2018-09-24T12:49:18.756Z,0.80
2018-09-24T12:51:52.311Z,0.97
2018-09-24T12:54:25.914Z,1.40
2018-09-24T12:56:59.442Z,1.27
2018-09-24T12:59:32.950Z,1.30
2018-09-24T13:02:06.497Z,1.33
2018-09-24T13:04:40.005Z,1.37
2018-09-24T13:07:13.644Z,1.20
2018-09-24T13:09:47.138Z,1.20
2018-09-24T13:12:20.645Z,1.27
2018-09-24T13:14:54.369Z,1.40
2018-09-24T13:17:28.102Z,1.70
2018-09-24T13:20:01.749Z,1.30
2018-09-24T13:22:35.330Z,0.60
2018-09-24T13:25:09.080Z,0.70
2018-09-24T13:27:42.560Z,1.30
2018-09-24T13:30:16.272Z,0.80
2018-09-24T13:32:50.024Z,0.93
2018-09-24T13:35:23.677Z,1.23
2018-09-24T13:37:57.542Z,1.00
2018-09-24T13:40:30.926Z,1.00
2018-09-24T13:43:04.449Z,1.77
2018-09-24T13:45:37.958Z,0.90
2018-09-24T13:48:11.679Z,0.80
2018-09-24T13:50:45.228Z,0.73
2018-09-24T13:53:18.923Z,0.93
2018-09-24T13:55:52.351Z,1.07
2018-09-24T13:58:25.955Z,0.80
2018-09-24T14:00:59.547Z,0.90
2018-09-24T14:03:36.920Z,0.53
2018-09-24T14:06:10.597Z,0.60
2018-09-24T14:08:44.187Z,0.60
2018-09-24T14:11:17.863Z,0.80
2018-09-24T14:13:51.501Z,0.60
2018-09-24T14:16:25.194Z,1.00
2018-09-24T14:18:58.900Z,0.77
2018-09-24T14:21:32.375Z,0.50
2018-09-24T14:24:05.995Z,0.90
2018-09-24T14:26:39.562Z,0.90
2018-09-24T14:29:13.781Z,0.80
2018-09-24T14:31:47.407Z,0.90
2018-09-24T14:34:20.952Z,1.13
2018-09-24T14:36:54.604Z,0.93
2018-09-24T14:39:28.184Z,0.90
2018-09-24T14:42:01.816Z,1.00
2018-09-24T14:44:35.441Z,0.90
2018-09-24T14:47:09.119Z,1.00
2018-09-24T14:49:42.818Z,0.80
2018-09-24T14:52:16.176Z,1.13
2018-09-24T14:54:49.822Z,0.90
2018-09-24T14:57:23.517Z,1.07
2018-09-24T14:59:56.989Z,1.30
2018-09-24T15:02:30.740Z,1.03
2018-09-24T15:05:04.221Z,0.90
2018-09-24T15:07:37.892Z,1.10
2018-09-24T15:10:11.501Z,1.13
2018-09-24T15:12:45.066Z,0.80
2018-09-24T15:15:18.554Z,0.70
2018-09-24T15:17:51.958Z,1.00
2018-09-24T15:20:25.552Z,1.00
2018-09-24T15:22:59.097Z,0.80
2018-09-24T15:25:32.787Z,0.87
2018-09-24T15:28:06.544Z,1.00
2018-09-24T15:30:40.113Z,1.10
2018-09-24T15:33:13.716Z,1.03
2018-09-24T15:35:47.297Z,1.00
2018-09-24T15:38:20.893Z,1.17
2018-09-24T15:40:54.512Z,1.03
2018-09-24T15:43:27.901Z,0.73
2018-09-24T15:46:01.416Z,1.40
2018-09-24T15:48:34.994Z,0.90
2018-09-24T15:51:08.525Z,1.30
2018-09-24T15:53:42.017Z,1.30
2018-09-24T15:56:15.518Z,1.10
2018-09-24T15:58:48.971Z,1.30
2018-09-24T16:01:22.593Z,1.20
2018-09-24T16:03:56.105Z,1.33
2018-09-24T16:06:29.707Z,1.47
2018-09-24T16:09:03.234Z,2.13
2018-09-24T16:11:36.726Z,1.30
2018-09-24T16:14:10.370Z,1.37
2018-09-24T16:16:43.986Z,1.20
2018-09-24T16:19:17.694Z,1.43
2018-09-24T16:21:51.877Z,2.07
2018-09-24T16:24:25.430Z,1.10
2018-09-24T16:26:59.130Z,1.47
2018-09-24T16:29:32.725Z,1.67
2018-09-24T16:32:06.262Z,1.53
2018-09-24T16:34:39.924Z,1.57
2018-09-24T16:37:13.428Z,1.60
2018-09-24T16:39:46.982Z,2.30
2018-09-24T16:42:20.721Z,2.40
2018-09-24T16:44:54.298Z,1.47
2018-09-24T16:47:27.949Z,1.50
2018-09-24T16:50:01.731Z,1.40
2018-09-24T16:52:35.397Z,1.27
2018-09-24T16:55:08.927Z,1.20
2018-09-24T16:57:42.530Z,1.33
2018-09-24T17:00:16.121Z,1.30
2018-09-24T17:02:49.498Z,0.93
2018-09-24T17:05:23.079Z,1.30
2018-09-24T17:07:56.573Z,0.77
2018-09-24T17:10:30.015Z,1.23
2018-09-24T17:13:03.733Z,1.60
2018-09-24T17:15:38.261Z,1.20
2018-09-24T17:18:12.036Z,1.37
2018-09-24T17:20:45.667Z,1.47
2018-09-24T17:23:19.176Z,1.00
2018-09-24T17:25:52.569Z,1.67
2018-09-24T17:28:26.168Z,1.20
2018-09-24T17:30:59.724Z,1.43
2018-09-24T17:33:33.136Z,1.70
2018-09-24T17:36:06.746Z,1.63
2018-09-24T17:38:40.222Z,1.30
2018-09-24T17:41:13.759Z,1.87
2018-09-24T17:43:47.283Z,1.53
2018-09-24T17:46:20.817Z,1.80
2018-09-24T17:48:54.332Z,1.80
2018-09-24T17:51:27.859Z,1.87
2018-09-24T17:54:01.329Z,1.87
2018-09-24T17:56:34.815Z,2.07
2018-09-24T17:59:08.425Z,1.47
2018-09-24T18:01:42.095Z,1.43
2018-09-24T18:04:15.506Z,1.63
2018-09-24T18:06:48.891Z,1.80
2018-09-24T18:09:22.538Z,1.93
2018-09-24T18:11:56.078Z,1.70
2018-09-24T18:14:29.654Z,1.90
2018-09-24T18:17:03.082Z,1.60
2018-09-24T18:19:36.707Z,1.37
2018-09-24T18:22:10.186Z,1.67
2018-09-24T18:24:43.734Z,1.80
2018-09-24T18:27:17.196Z,1.57
2018-09-24T18:29:50.718Z,1.77
2018-09-24T18:32:24.283Z,1.73
2018-09-24T18:34:57.782Z,1.60
2018-09-24T18:37:31.304Z,1.70
2018-09-24T18:40:04.717Z,1.80
2018-09-24T18:42:38.205Z,1.90
2018-09-24T18:45:11.675Z,1.60
2018-09-24T18:47:45.062Z,1.63
2018-09-24T18:50:18.627Z,1.77
2018-09-24T18:52:52.206Z,2.03
2018-09-24T18:55:25.702Z,2.27
2018-09-24T18:57:59.156Z,1.67
2018-09-24T19:00:32.686Z,2.30
2018-09-24T19:03:06.183Z,2.13
2018-09-24T19:05:39.626Z,1.70
2018-09-24T19:08:13.154Z,1.63
2018-09-24T19:10:46.615Z,2.10
2018-09-24T19:13:20.153Z,2.13
2018-09-24T19:15:53.721Z,1.67
2018-09-24T19:18:27.216Z,1.90
2018-09-24T19:21:00.724Z,1.90
2018-09-24T19:23:34.259Z,1.53
2018-09-24T19:26:07.774Z,1.53
2018-09-24T19:28:41.316Z,2.50
2018-09-24T19:31:14.936Z,1.30
2018-09-24T19:33:48.427Z,1.50
2018-09-24T19:36:21.959Z,1.83
2018-09-24T19:38:55.476Z,2.07
2018-09-24T19:41:29.070Z,1.53
2018-09-24T19:44:02.672Z,1.93
2018-09-24T19:46:36.207Z,1.80
2018-09-24T19:49:09.658Z,1.90
2018-09-24T19:51:43.175Z,2.00
2018-09-24T19:54:16.758Z,1.73
2018-09-24T19:56:50.258Z,1.70
2018-09-24T19:59:23.811Z,1.90
2018-09-24T20:01:57.362Z,2.00
2018-09-24T20:04:30.958Z,2.00
2018-09-24T20:07:04.467Z,1.70
2018-09-24T20:09:45.444Z,1.70
2018-09-24T20:12:19.019Z,2.20
2018-09-24T20:14:52.514Z,1.87
2018-09-24T20:17:26.017Z,1.53
2018-09-24T20:19:59.436Z,1.90
2018-09-24T20:22:32.991Z,1.97
2018-09-24T20:25:06.490Z,2.27
2018-09-24T20:27:39.966Z,2.67
2018-09-24T20:30:13.530Z,1.77
2018-09-24T20:32:47.188Z,2.50
2018-09-24T20:35:20.637Z,2.40
2018-09-24T20:37:54.058Z,2.00
2018-09-24T20:40:27.622Z,2.50
2018-09-24T20:43:01.117Z,2.90
2018-09-24T20:45:34.675Z,2.23
2018-09-24T20:48:08.223Z,2.00
2018-09-24T20:50:41.723Z,2.10
2018-09-24T20:53:15.233Z,1.70
2018-09-24T20:55:48.658Z,1.70
2018-09-24T20:58:22.249Z,2.03
2018-09-24T21:00:55.829Z,1.97
2018-09-24T21:03:29.359Z,1.97
2018-09-24T21:06:02.944Z,2.30
2018-09-24T21:08:36.479Z,1.97
2018-09-24T21:11:10.043Z,2.13
2018-09-24T21:13:43.486Z,2.37
2018-09-24T21:16:17.119Z,2.43
2018-09-24T21:18:50.654Z,2.17
2018-09-24T21:21:24.237Z,1.97
2018-09-24T21:23:57.703Z,2.13
2018-09-24T21:26:31.205Z,1.97
2018-09-24T21:29:04.747Z,1.77
2018-09-24T21:31:38.300Z,2.10
2018-09-24T21:34:11.951Z,2.00
2018-09-24T21:36:46.129Z,1.93
2018-09-24T21:39:19.689Z,1.97
2018-09-24T21:41:59.684Z,2.20
2018-09-24T21:44:33.202Z,2.40
2018-09-24T21:47:06.814Z,1.93
2018-09-24T21:49:40.482Z,2.20
2018-09-24T21:52:14.054Z,2.53
2018-09-24T21:54:47.599Z,2.30
2018-09-24T21:57:21.147Z,2.27
2018-09-24T21:59:55.168Z,2.20
2018-09-24T22:02:28.715Z,2.03
2018-09-24T22:05:02.260Z,2.30
2018-09-24T22:07:35.819Z,3.10
2018-09-24T22:10:09.329Z,2.40
2018-09-24T22:12:43.419Z,2.40
2018-09-24T22:15:17.055Z,2.30
2018-09-24T22:17:50.707Z,2.17
2018-09-24T22:20:24.377Z,2.30
2018-09-24T22:22:57.973Z,1.77
2018-09-24T22:25:32.291Z,2.37
2018-09-24T22:28:05.738Z,2.37
2018-09-24T22:30:39.291Z,2.33
2018-09-24T22:33:12.869Z,2.10
2018-09-24T22:35:46.903Z,2.40
2018-09-24T22:38:20.362Z,2.10
2018-09-24T22:40:54.455Z,2.70
2018-09-24T22:43:27.967Z,2.23
2018-09-24T22:46:01.409Z,2.50
2018-09-24T22:48:34.959Z,2.10
2018-09-24T22:51:08.522Z,2.23
2018-09-24T22:53:48.766Z,2.20
2018-09-24T22:56:22.315Z,2.03
2018-09-24T22:58:55.919Z,2.20
2018-09-24T23:01:29.487Z,2.30
2018-09-24T23:04:03.004Z,2.47
2018-09-24T23:06:36.541Z,2.47
2018-09-24T23:09:10.799Z,2.37
2018-09-24T23:11:44.381Z,3.13
2018-09-24T23:14:17.939Z,2.30
2018-09-24T23:16:51.530Z,2.37
2018-09-24T23:19:25.019Z,2.33
2018-09-24T23:21:58.494Z,2.13
2018-09-24T23:24:32.060Z,2.47
2018-09-24T23:27:05.623Z,2.40
2018-09-24T23:29:39.209Z,3.23
2018-09-24T23:32:12.700Z,2.37
2018-09-24T23:34:46.190Z,2.87
2018-09-24T23:37:19.784Z,3.00
2018-09-24T23:39:53.391Z,2.30
2018-09-24T23:42:27.014Z,2.50
2018-09-24T23:45:00.580Z,2.67
2018-09-24T23:47:34.205Z,2.40
2018-09-24T23:50:07.813Z,2.37
2018-09-24T23:52:41.453Z,2.43
2018-09-24T23:55:15.015Z,2.43
2018-09-24T23:57:48.552Z,3.10
